sensor_id;sensor_type;location;lat;lon;timestamp;P1;durP1;ratioP1;P2;durP2;ratioP2
39698;SDS011;25372;50.582;12.250;2023-05-21T00:00:21;18.58;;;8.75;;
39698;SDS011;25372;50.582;12.250;2023-05-21T00:10:42;21.90;;;10.35;;
39698;SDS011;25372;50.582;12.250;2023-05-21T00:21:04;19.80;;;9.55;;
39698;SDS011;25372;50.582;12.250;2023-05-21T00:31:26;20.92;;;10.30;;
39698;SDS011;25372;50.582;12.250;2023-05-21T00:41:48;19.20;;;8.20;;
39698;SDS011;25372;50.582;12.250;2023-05-21T00:52:09;20.83;;;8.70;;
39698;SDS011;25372;50.582;12.250;2023-05-21T01:02:31;17.45;;;8.25;;
39698;SDS011;25372;50.582;12.250;2023-05-21T01:12:53;18.75;;;8.32;;
39698;SDS011;25372;50.582;12.250;2023-05-21T01:23:17;19.92;;;10.10;;
39698;SDS011;25372;50.582;12.250;2023-05-21T01:33:40;23.83;;;9.52;;
39698;SDS011;25372;50.582;12.250;2023-05-21T01:44:07;20.85;;;8.68;;
39698;SDS011;25372;50.582;12.250;2023-05-21T01:54:30;24.40;;;9.73;;
39698;SDS011;25372;50.582;12.250;2023-05-21T02:04:52;22.23;;;9.80;;
39698;SDS011;25372;50.582;12.250;2023-05-21T02:15:12;21.50;;;9.52;;
39698;SDS011;25372;50.582;12.250;2023-05-21T02:25:38;21.93;;;10.40;;
39698;SDS011;25372;50.582;12.250;2023-05-21T02:35:59;15.65;;;7.20;;
39698;SDS011;25372;50.582;12.250;2023-05-21T02:46:22;16.40;;;7.90;;
39698;SDS011;25372;50.582;12.250;2023-05-21T02:56:45;20.73;;;9.13;;
39698;SDS011;25372;50.582;12.250;2023-05-21T03:07:07;21.23;;;9.98;;
39698;SDS011;25372;50.582;12.250;2023-05-21T03:17:28;14.68;;;8.40;;
39698;SDS011;25372;50.582;12.250;2023-05-21T03:27:51;19.10;;;9.57;;
39698;SDS011;25372;50.582;12.250;2023-05-21T03:38:34;19.27;;;8.90;;
39698;SDS011;25372;50.582;12.250;2023-05-21T03:48:56;19.35;;;9.50;;
39698;SDS011;25372;50.582;12.250;2023-05-21T03:59:19;24.52;;;9.20;;
39698;SDS011;25372;50.582;12.250;2023-05-21T04:09:41;26.38;;;11.23;;
39698;SDS011;25372;50.582;12.250;2023-05-21T04:20:02;16.17;;;8.75;;
39698;SDS011;25372;50.582;12.250;2023-05-21T04:30:25;21.13;;;8.90;;
39698;SDS011;25372;50.582;12.250;2023-05-21T04:40:47;19.10;;;9.48;;
39698;SDS011;25372;50.582;12.250;2023-05-21T04:51:11;17.02;;;9.10;;
39698;SDS011;25372;50.582;12.250;2023-05-21T05:01:33;17.35;;;8.77;;
39698;SDS011;25372;50.582;12.250;2023-05-21T05:11:58;18.85;;;8.65;;
39698;SDS011;25372;50.582;12.250;2023-05-21T05:22:19;14.77;;;6.88;;
39698;SDS011;25372;50.582;12.250;2023-05-21T05:32:42;12.68;;;7.82;;
39698;SDS011;25372;50.582;12.250;2023-05-21T05:43:04;14.75;;;7.57;;
39698;SDS011;25372;50.582;12.250;2023-05-21T05:53:26;12.13;;;7.30;;
39698;SDS011;25372;50.582;12.250;2023-05-21T06:03:49;15.53;;;7.63;;
39698;SDS011;25372;50.582;12.250;2023-05-21T06:14:12;12.50;;;6.80;;
39698;SDS011;25372;50.582;12.250;2023-05-21T06:24:33;12.55;;;7.30;;
39698;SDS011;25372;50.582;12.250;2023-05-21T06:34:56;10.68;;;6.63;;
39698;SDS011;25372;50.582;12.250;2023-05-21T06:45:17;13.40;;;6.88;;
39698;SDS011;25372;50.582;12.250;2023-05-21T06:55:40;11.82;;;6.57;;
39698;SDS011;25372;50.582;12.250;2023-05-21T07:06:25;14.00;;;6.82;;
39698;SDS011;25372;50.582;12.250;2023-05-21T07:16:47;10.95;;;6.35;;
39698;SDS011;25372;50.582;12.250;2023-05-21T07:27:08;13.13;;;7.13;;
39698;SDS011;25372;50.582;12.250;2023-05-21T07:37:30;10.25;;;6.22;;
39698;SDS011;25372;50.582;12.250;2023-05-21T07:47:52;15.77;;;6.95;;
39698;SDS011;25372;50.582;12.250;2023-05-21T07:58:15;10.85;;;7.25;;
39698;SDS011;25372;50.582;12.250;2023-05-21T08:08:37;12.60;;;7.43;;
39698;SDS011;25372;50.582;12.250;2023-05-21T08:18:59;13.38;;;7.07;;
39698;SDS011;25372;50.582;12.250;2023-05-21T08:29:21;9.95;;;6.32;;
39698;SDS011;25372;50.582;12.250;2023-05-21T08:39:43;11.55;;;7.35;;
39698;SDS011;25372;50.582;12.250;2023-05-21T08:50:05;8.10;;;5.70;;
39698;SDS011;25372;50.582;12.250;2023-05-21T09:00:31;11.65;;;6.35;;
39698;SDS011;25372;50.582;12.250;2023-05-21T09:10:53;9.38;;;5.03;;
39698;SDS011;25372;50.582;12.250;2023-05-21T09:21:24;7.25;;;5.70;;
39698;SDS011;25372;50.582;12.250;2023-05-21T09:32:13;9.68;;;6.50;;
39698;SDS011;25372;50.582;12.250;2023-05-21T09:42:35;9.05;;;5.97;;
39698;SDS011;25372;50.582;12.250;2023-05-21T09:52:57;8.70;;;5.50;;
39698;SDS011;25372;50.582;12.250;2023-05-21T10:03:20;10.50;;;5.50;;
39698;SDS011;25372;50.582;12.250;2023-05-21T10:13:43;9.13;;;5.45;;
39698;SDS011;25372;50.582;12.250;2023-05-21T10:24:07;11.30;;;5.70;;
39698;SDS011;25372;50.582;12.250;2023-05-21T10:34:28;10.50;;;6.35;;
39698;SDS011;25372;50.582;12.250;2023-05-21T10:44:59;8.90;;;5.18;;
39698;SDS011;25372;50.582;12.250;2023-05-21T10:55:35;8.63;;;4.88;;
39698;SDS011;25372;50.582;12.250;2023-05-21T11:06:07;8.20;;;5.47;;
39698;SDS011;25372;50.582;12.250;2023-05-21T11:16:29;7.53;;;4.50;;
39698;SDS011;25372;50.582;12.250;2023-05-21T11:27:01;7.75;;;5.00;;
39698;SDS011;25372;50.582;12.250;2023-05-21T11:37:30;6.93;;;4.70;;
39698;SDS011;25372;50.582;12.250;2023-05-21T11:47:54;8.98;;;4.60;;
39698;SDS011;25372;50.582;12.250;2023-05-21T11:58:17;4.47;;;3.75;;
39698;SDS011;25372;50.582;12.250;2023-05-21T12:08:39;5.35;;;4.25;;
39698;SDS011;25372;50.582;12.250;2023-05-21T12:19:00;6.53;;;4.13;;
39698;SDS011;25372;50.582;12.250;2023-05-21T12:29:23;8.52;;;4.55;;
39698;SDS011;25372;50.582;12.250;2023-05-21T12:39:44;9.95;;;4.78;;
39698;SDS011;25372;50.582;12.250;2023-05-21T12:50:08;7.90;;;4.97;;
39698;SDS011;25372;50.582;12.250;2023-05-21T13:00:30;7.10;;;4.30;;
39698;SDS011;25372;50.582;12.250;2023-05-21T13:10:53;7.55;;;4.45;;
39698;SDS011;25372;50.582;12.250;2023-05-21T13:21:14;7.90;;;4.88;;
39698;SDS011;25372;50.582;12.250;2023-05-21T13:31:37;7.95;;;5.53;;
39698;SDS011;25372;50.582;12.250;2023-05-21T13:41:58;9.57;;;4.40;;
39698;SDS011;25372;50.582;12.250;2023-05-21T13:52:21;11.10;;;5.78;;
39698;SDS011;25372;50.582;12.250;2023-05-21T14:02:42;8.57;;;4.78;;
39698;SDS011;25372;50.582;12.250;2023-05-21T14:13:04;6.10;;;3.80;;
39698;SDS011;25372;50.582;12.250;2023-05-21T14:23:25;8.00;;;4.22;;
39698;SDS011;25372;50.582;12.250;2023-05-21T14:33:48;5.35;;;3.45;;
39698;SDS011;25372;50.582;12.250;2023-05-21T14:44:09;7.40;;;4.53;;
39698;SDS011;25372;50.582;12.250;2023-05-21T14:54:31;6.15;;;3.85;;
39698;SDS011;25372;50.582;12.250;2023-05-21T15:04:52;5.55;;;3.30;;
39698;SDS011;25372;50.582;12.250;2023-05-21T15:15:16;5.32;;;3.08;;
39698;SDS011;25372;50.582;12.250;2023-05-21T15:25:39;4.15;;;3.25;;
39698;SDS011;25372;50.582;12.250;2023-05-21T15:36:01;6.28;;;4.53;;
39698;SDS011;25372;50.582;12.250;2023-05-21T15:46:21;5.85;;;3.85;;
39698;SDS011;25372;50.582;12.250;2023-05-21T15:56:43;4.88;;;3.28;;
39698;SDS011;25372;50.582;12.250;2023-05-21T16:07:05;8.68;;;4.85;;
39698;SDS011;25372;50.582;12.250;2023-05-21T16:17:28;7.03;;;3.65;;
39698;SDS011;25372;50.582;12.250;2023-05-21T16:27:51;4.90;;;3.15;;
39698;SDS011;25372;50.582;12.250;2023-05-21T16:38:13;5.57;;;3.60;;
39698;SDS011;25372;50.582;12.250;2023-05-21T16:48:35;4.32;;;2.95;;
39698;SDS011;25372;50.582;12.250;2023-05-21T16:58:59;5.20;;;3.20;;
39698;SDS011;25372;50.582;12.250;2023-05-21T17:09:19;3.67;;;2.78;;
39698;SDS011;25372;50.582;12.250;2023-05-21T17:19:42;4.63;;;2.85;;
39698;SDS011;25372;50.582;12.250;2023-05-21T17:30:04;4.85;;;3.17;;
39698;SDS011;25372;50.582;12.250;2023-05-21T17:40:27;3.75;;;3.13;;
39698;SDS011;25372;50.582;12.250;2023-05-21T17:50:47;4.22;;;2.85;;
39698;SDS011;25372;50.582;12.250;2023-05-21T18:01:10;4.22;;;3.33;;
39698;SDS011;25372;50.582;12.250;2023-05-21T18:11:31;6.97;;;3.25;;
39698;SDS011;25372;50.582;12.250;2023-05-21T18:21:53;6.25;;;3.25;;
39698;SDS011;25372;50.582;12.250;2023-05-21T18:32:15;4.35;;;3.25;;
39698;SDS011;25372;50.582;12.250;2023-05-21T18:42:37;4.15;;;2.95;;
39698;SDS011;25372;50.582;12.250;2023-05-21T18:52:58;7.93;;;3.45;;
39698;SDS011;25372;50.582;12.250;2023-05-21T19:03:20;6.40;;;3.70;;
39698;SDS011;25372;50.582;12.250;2023-05-21T19:13:41;5.35;;;3.50;;
39698;SDS011;25372;50.582;12.250;2023-05-21T19:24:04;5.75;;;3.28;;
39698;SDS011;25372;50.582;12.250;2023-05-21T19:34:25;4.43;;;2.78;;
39698;SDS011;25372;50.582;12.250;2023-05-21T19:44:47;5.85;;;3.35;;
39698;SDS011;25372;50.582;12.250;2023-05-21T19:55:08;9.27;;;3.65;;
39698;SDS011;25372;50.582;12.250;2023-05-21T20:05:30;4.32;;;3.22;;
39698;SDS011;25372;50.582;12.250;2023-05-21T20:15:51;5.32;;;3.88;;
39698;SDS011;25372;50.582;12.250;2023-05-21T20:26:13;3.95;;;2.90;;
39698;SDS011;25372;50.582;12.250;2023-05-21T20:36:35;6.25;;;3.67;;
39698;SDS011;25372;50.582;12.250;2023-05-21T20:46:57;6.68;;;3.85;;
39698;SDS011;25372;50.582;12.250;2023-05-21T20:57:20;6.13;;;3.60;;
39698;SDS011;25372;50.582;12.250;2023-05-21T21:07:43;5.80;;;3.67;;
39698;SDS011;25372;50.582;12.250;2023-05-21T21:18:04;8.45;;;4.45;;
39698;SDS011;25372;50.582;12.250;2023-05-21T21:28:27;5.93;;;3.60;;
39698;SDS011;25372;50.582;12.250;2023-05-21T21:38:48;6.65;;;3.45;;
39698;SDS011;25372;50.582;12.250;2023-05-21T21:49:10;5.72;;;3.70;;
39698;SDS011;25372;50.582;12.250;2023-05-21T21:59:32;5.78;;;3.72;;
39698;SDS011;25372;50.582;12.250;2023-05-21T22:09:55;6.25;;;3.60;;
39698;SDS011;25372;50.582;12.250;2023-05-21T22:20:16;6.10;;;3.72;;
39698;SDS011;25372;50.582;12.250;2023-05-21T22:30:38;7.75;;;4.10;;
39698;SDS011;25372;50.582;12.250;2023-05-21T22:40:59;6.07;;;4.13;;
39698;SDS011;25372;50.582;12.250;2023-05-21T22:51:21;9.07;;;4.70;;
39698;SDS011;25372;50.582;12.250;2023-05-21T23:01:42;6.70;;;4.03;;
39698;SDS011;25372;50.582;12.250;2023-05-21T23:12:05;8.60;;;4.20;;
39698;SDS011;25372;50.582;12.250;2023-05-21T23:22:26;6.95;;;4.30;;
39698;SDS011;25372;50.582;12.250;2023-05-21T23:32:48;5.97;;;4.20;;
39698;SDS011;25372;50.582;12.250;2023-05-21T23:43:10;9.48;;;4.25;;
39698;SDS011;25372;50.582;12.250;2023-05-21T23:53:32;8.20;;;4.00;;
